Time;durP1;ratioP1;P1;durP2;ratioP2;P2;SDS_P1;SDS_P2;PMS_P1;PMS_P2;Temp;Humidity;BMP_temperature;BMP_pressure;BME280_temperature;BME280_humidity;BME280_pressure;Samples;Min_cycle;Max_cycle;Signal;HPM_P1;HPM_P2
2022/07/22 00:02:08;;;;;;;6.95;6.25;;;26.10;55.80;;;;;;5022883;28;20071;-49
2022/07/22 00:04:34;;;;;;;7.68;6.82;;;26.00;56.40;;;;;;5023216;28;20025;-49
2022/07/22 00:06:59;;;;;;;7.70;6.72;;;26.00;56.60;;;;;;5016496;28;20821;-48
2022/07/22 00:09:25;;;;;;;8.63;7.20;;;26.00;56.70;;;;;;5003553;28;20104;-49
2022/07/22 00:11:51;;;;;;;8.05;6.72;;;25.90;56.50;;;;;;5002756;28;20045;-47
2022/07/22 00:14:17;;;;;;;7.75;6.65;;;25.80;56.50;;;;;;5003213;28;20470;-48
2022/07/22 00:16:42;;;;;;;8.13;7.32;;;25.80;56.60;;;;;;5002775;28;20156;-49
2022/07/22 00:19:09;;;;;;;9.55;7.75;;;25.70;56.60;;;;;;5003231;28;20033;-48
2022/07/22 00:21:35;;;;;;;7.47;6.75;;;25.70;56.90;;;;;;5003031;28;20655;-49
2022/07/22 00:24:00;;;;;;;7.47;6.68;;;25.70;56.90;;;;;;5002963;28;20038;-48
2022/07/22 00:26:26;;;;;;;8.57;7.63;;;25.60;57.00;;;;;;5012822;28;20041;-49
2022/07/22 00:28:52;;;;;;;8.88;7.13;;;25.60;56.90;;;;;;5027448;28;20033;-47
2022/07/22 00:31:17;;;;;;;9.05;7.28;;;25.50;57.10;;;;;;5026043;28;20036;-48
2022/07/22 00:33:43;;;;;;;7.72;6.93;;;25.50;57.10;;;;;;5026527;28;20770;-48
2022/07/22 00:36:09;;;;;;;8.85;7.32;;;25.40;57.20;;;;;;5026420;28;20026;-48
2022/07/22 00:38:34;;;;;;;7.40;6.70;;;25.40;57.50;;;;;;5003724;28;20042;-48
2022/07/22 00:41:00;;;;;;;10.13;7.22;;;25.40;57.50;;;;;;4987120;28;20475;-48
2022/07/22 00:43:26;;;;;;;7.47;6.68;;;25.40;57.20;;;;;;4987275;28;20032;-48
2022/07/22 00:45:52;;;;;;;8.02;7.22;;;25.30;57.50;;;;;;5002743;28;20199;-47
2022/07/22 00:48:18;;;;;;;8.20;7.15;;;25.30;57.50;;;;;;5006744;28;20037;-47
2022/07/22 00:50:44;;;;;;;7.78;7.07;;;25.30;57.40;;;;;;5006832;28;20547;-47
2022/07/22 00:53:10;;;;;;;8.90;7.20;;;25.30;57.60;;;;;;5004842;28;20034;-47
2022/07/22 00:55:36;;;;;;;8.23;7.40;;;25.30;57.30;;;;;;5006321;28;20026;-47
2022/07/22 00:58:03;;;;;;;7.93;6.88;;;25.30;57.80;;;;;;5007926;28;20030;-47
2022/07/22 01:00:29;;;;;;;8.93;7.07;;;25.20;57.80;;;;;;5005858;28;20033;-47
2022/07/22 01:02:55;;;;;;;8.13;7.30;;;25.20;57.80;;;;;;5006429;28;20021;-48
2022/07/22 01:05:20;;;;;;;7.95;7.15;;;25.20;57.80;;;;;;5005802;28;20437;-47
2022/07/22 01:07:46;;;;;;;7.18;6.47;;;25.10;57.40;;;;;;5004165;28;20041;-47
2022/07/22 01:10:13;;;;;;;8.63;7.43;;;25.10;57.90;;;;;;5004930;28;20018;-47
2022/07/22 01:12:39;;;;;;;9.02;7.47;;;25.10;58.10;;;;;;5006742;28;20041;-47
2022/07/22 01:15:05;;;;;;;8.55;7.40;;;25.10;58.30;;;;;;5006259;28;20618;-47
2022/07/22 01:17:31;;;;;;;8.48;7.68;;;25.00;58.50;;;;;;5005907;28;20028;-47
2022/07/22 01:20:03;;;;;;;10.48;7.75;;;25.00;58.90;;;;;;5006697;28;20255;-47
2022/07/22 01:22:30;;;;;;;7.70;6.93;;;24.90;59.00;;;;;;5005385;28;20033;-49
2022/07/22 01:24:55;;;;;;;7.10;6.40;;;24.90;59.00;;;;;;5005411;28;20034;-47
2022/07/22 01:27:21;;;;;;;7.47;6.78;;;24.90;59.10;;;;;;5005984;28;20052;-48
2022/07/22 01:29:47;;;;;;;7.60;6.78;;;24.90;58.90;;;;;;5005872;28;20022;-47
2022/07/22 01:32:12;;;;;;;7.47;6.72;;;24.90;59.10;;;;;;5006152;28;20034;-48
2022/07/22 01:34:38;;;;;;;7.95;7.22;;;24.90;59.10;;;;;;5005720;28;20565;-47
2022/07/22 01:37:04;;;;;;;7.65;6.85;;;24.80;58.60;;;;;;5004530;28;20780;-48
2022/07/22 01:39:30;;;;;;;8.20;7.25;;;24.80;58.90;;;;;;5005624;28;20065;-48
2022/07/22 01:41:55;;;;;;;8.98;7.13;;;24.80;58.70;;;;;;5003613;28;20761;-47
2022/07/22 01:44:21;;;;;;;7.07;6.38;;;24.80;59.10;;;;;;5005909;28;20044;-47
2022/07/22 01:46:47;;;;;;;9.15;6.70;;;24.80;58.70;;;;;;5004923;28;20113;-47
2022/07/22 01:49:12;;;;;;;7.90;6.82;;;24.80;58.70;;;;;;5005394;28;20121;-48
2022/07/22 01:51:38;;;;;;;8.02;7.18;;;24.80;58.60;;;;;;5005407;28;20065;-47
2022/07/22 01:54:04;;;;;;;9.00;7.18;;;24.80;58.60;;;;;;5005500;28;20029;-47
2022/07/22 01:56:30;;;;;;;7.50;6.70;;;24.80;58.80;;;;;;5005697;28;20543;-52
2022/07/22 01:58:55;;;;;;;7.00;6.32;;;24.80;58.50;;;;;;5005698;28;20030;-47
2022/07/22 02:01:21;;;;;;;8.77;7.72;;;24.80;58.70;;;;;;5005766;28;20064;-47
2022/07/22 02:03:47;;;;;;;7.88;6.78;;;24.80;58.50;;;;;;5005216;28;20034;-47
2022/07/22 02:06:12;;;;;;;7.25;6.55;;;24.80;58.30;;;;;;5004932;28;20034;-48
2022/07/22 02:08:38;;;;;;;6.57;5.95;;;24.80;58.20;;;;;;5005286;28;20029;-47
2022/07/22 02:11:04;;;;;;;9.18;6.65;;;24.80;58.30;;;;;;5004958;28;20053;-47
2022/07/22 02:13:30;;;;;;;7.65;6.88;;;24.80;58.10;;;;;;5005561;28;20382;-47
2022/07/22 02:15:55;;;;;;;9.35;7.53;;;24.80;58.00;;;;;;5004591;28;20037;-47
2022/07/22 02:18:21;;;;;;;7.93;7.10;;;24.80;58.00;;;;;;5005321;28;20018;-47
2022/07/22 02:20:47;;;;;;;8.05;7.20;;;24.70;58.10;;;;;;5004639;28;20568;-47
2022/07/22 02:23:12;;;;;;;8.18;7.38;;;24.80;58.10;;;;;;5004671;28;20627;-47
2022/07/22 02:25:40;;;;;;;8.23;7.43;;;24.80;58.10;;;;;;5004915;28;20153;-47
2022/07/22 02:28:06;;;;;;;7.95;7.15;;;24.70;58.30;;;;;;5004365;28;20018;-48
2022/07/22 02:30:34;;;;;;;9.27;6.88;;;24.70;58.20;;;;;;5005087;28;20041;-47
2022/07/22 02:33:00;;;;;;;9.45;7.10;;;24.70;58.30;;;;;;5004278;28;20033;-47
2022/07/22 02:35:25;;;;;;;8.20;7.40;;;24.70;58.20;;;;;;5004285;28;20047;-48
2022/07/22 02:37:51;;;;;;;8.32;7.53;;;24.70;58.30;;;;;;5004360;28;20022;-47
2022/07/22 02:40:17;;;;;;;9.90;7.80;;;24.60;58.20;;;;;;5004272;28;20030;-47
2022/07/22 02:42:43;;;;;;;7.70;6.88;;;24.60;58.10;;;;;;5004164;28;20030;-48
2022/07/22 02:45:09;;;;;;;7.85;7.05;;;24.60;58.30;;;;;;5003910;28;20110;-47
2022/07/22 02:47:35;;;;;;;8.95;7.65;;;24.60;58.40;;;;;;5004719;28;20045;-46
2022/07/22 02:50:01;;;;;;;8.40;7.45;;;24.60;58.50;;;;;;5004672;28;20028;-46
2022/07/22 02:52:26;;;;;;;9.18;7.88;;;24.50;58.50;;;;;;5004243;28;20026;-47
2022/07/22 02:54:52;;;;;;;9.73;8.25;;;24.50;58.70;;;;;;5004168;28;20057;-47
2022/07/22 02:57:18;;;;;;;8.02;7.07;;;24.50;58.80;;;;;;5004350;28;20116;-48
2022/07/22 02:59:44;;;;;;;8.45;7.63;;;24.40;58.90;;;;;;5003273;28;20018;-47
2022/07/22 03:02:09;;;;;;;8.88;7.97;;;24.40;59.00;;;;;;5003513;28;20022;-47
2022/07/22 03:04:35;;;;;;;8.70;7.90;;;24.40;59.10;;;;;;5004489;28;20036;-47
2022/07/22 03:07:01;;;;;;;9.55;8.18;;;24.40;59.10;;;;;;5003567;28;20026;-46
2022/07/22 03:09:26;;;;;;;9.23;8.30;;;24.40;59.10;;;;;;5004373;28;20482;-48
2022/07/22 03:11:52;;;;;;;9.02;8.13;;;24.40;59.10;;;;;;5003400;28;20048;-47
2022/07/22 03:14:18;;;;;;;8.80;8.00;;;24.40;58.90;;;;;;5004283;28;20022;-47
2022/07/22 03:16:44;;;;;;;9.73;8.75;;;24.40;59.40;;;;;;5004081;28;20089;-47
2022/07/22 03:19:10;;;;;;;12.02;8.55;;;24.30;59.40;;;;;;5003924;28;20608;-48
2022/07/22 03:21:36;;;;;;;9.35;8.45;;;24.30;59.40;;;;;;5004198;28;20030;-47
2022/07/22 03:24:01;;;;;;;9.27;8.35;;;24.30;59.50;;;;;;5003751;28;20113;-48
2022/07/22 03:26:27;;;;;;;8.75;7.82;;;24.20;59.40;;;;;;5034497;28;20026;-47
2022/07/22 03:28:53;;;;;;;9.18;8.27;;;24.20;59.60;;;;;;5004001;28;20037;-47
2022/07/22 03:31:18;;;;;;;9.57;8.57;;;24.20;59.70;;;;;;5003521;28;20049;-47
2022/07/22 03:33:44;;;;;;;8.55;7.75;;;24.20;59.80;;;;;;5003773;28;20519;-47
2022/07/22 03:36:10;;;;;;;8.77;7.97;;;24.20;59.90;;;;;;5003405;28;20045;-47
2022/07/22 03:38:36;;;;;;;8.77;7.93;;;24.20;59.80;;;;;;5003505;28;20092;-47
2022/07/22 03:41:03;;;;;;;9.27;8.38;;;24.10;59.90;;;;;;5003746;28;20111;-47
2022/07/22 03:43:29;;;;;;;8.65;7.85;;;24.10;60.10;;;;;;5003632;28;20724;-47
2022/07/22 03:45:55;;;;;;;9.20;8.35;;;24.00;60.20;;;;;;5003684;28;20088;-47
2022/07/22 03:48:21;;;;;;;9.50;8.50;;;24.00;60.30;;;;;;5002130;28;20038;-47
2022/07/22 03:50:46;;;;;;;10.40;9.40;;;24.00;60.40;;;;;;5003738;28;20678;-47
2022/07/22 03:53:12;;;;;;;10.02;8.30;;;24.00;60.60;;;;;;5002996;28;20161;-47
2022/07/22 03:55:38;;;;;;;10.63;9.02;;;23.90;60.70;;;;;;5002737;28;20725;-48
2022/07/22 03:58:03;;;;;;;9.43;8.55;;;23.90;60.80;;;;;;5003591;28;20597;-47
2022/07/22 04:00:29;;;;;;;9.52;8.63;;;23.90;60.80;;;;;;5002644;28;20026;-46
2022/07/22 04:02:55;;;;;;;10.23;8.15;;;23.90;61.00;;;;;;5003214;28;20100;-47
2022/07/22 04:05:20;;;;;;;9.40;8.50;;;23.90;60.90;;;;;;5002715;28;20036;-47
2022/07/22 04:07:46;;;;;;;9.60;8.60;;;23.90;61.00;;;;;;5002643;28;20030;-47
2022/07/22 04:10:12;;;;;;;10.10;9.15;;;23.90;61.10;;;;;;5002553;28;20132;-47
2022/07/22 04:12:39;;;;;;;9.88;8.98;;;23.90;61.30;;;;;;5003740;28;20076;-47
2022/07/22 04:15:07;;;;;;;10.23;9.25;;;23.80;61.40;;;;;;5002736;28;20097;-48
2022/07/22 04:17:33;;;;;;;10.40;9.30;;;23.80;61.50;;;;;;5002579;28;20061;-47
2022/07/22 04:20:00;;;;;;;9.43;8.43;;;23.80;61.50;;;;;;5003390;28;20482;-48
2022/07/22 04:22:26;;;;;;;9.65;8.75;;;23.80;61.60;;;;;;5002128;28;20091;-47
2022/07/22 04:24:52;;;;;;;10.32;9.32;;;23.70;62.20;;;;;;5003081;28;20038;-47
2022/07/22 04:27:18;;;;;;;9.55;8.65;;;23.70;62.00;;;;;;5002508;28;20099;-47
2022/07/22 04:29:43;;;;;;;10.32;9.25;;;23.70;62.10;;;;;;5002829;28;20080;-48
2022/07/22 04:32:09;;;;;;;9.48;8.50;;;23.70;62.30;;;;;;5002948;28;20608;-48
2022/07/22 04:34:35;;;;;;;10.63;9.52;;;23.70;62.10;;;;;;5002500;28;20706;-48
2022/07/22 04:37:01;;;;;;;8.95;7.88;;;23.70;62.20;;;;;;5002458;28;20768;-48
2022/07/22 04:39:26;;;;;;;9.18;8.25;;;23.70;62.00;;;;;;5002450;28;20069;-47
2022/07/22 04:41:52;;;;;;;10.45;9.15;;;23.70;62.40;;;;;;5002853;28;20057;-47
2022/07/22 04:44:17;;;;;;;9.55;8.55;;;23.70;62.40;;;;;;5002973;28;20041;-47
2022/07/22 04:46:43;;;;;;;10.68;9.57;;;23.70;62.30;;;;;;5001863;28;20033;-48
2022/07/22 04:49:09;;;;;;;10.88;8.95;;;23.70;62.80;;;;;;5002497;28;20555;-47
2022/07/22 04:51:34;;;;;;;10.45;8.93;;;23.70;62.20;;;;;;5002100;28;20116;-47
2022/07/22 04:54:00;;;;;;;9.95;8.85;;;23.60;62.20;;;;;;5001616;28;20049;-47
2022/07/22 04:56:26;;;;;;;8.85;8.02;;;23.60;62.20;;;;;;5002316;28;20026;-47
2022/07/22 04:58:52;;;;;;;9.98;9.00;;;23.60;62.20;;;;;;5002236;28;20710;-47
2022/07/22 05:01:17;;;;;;;10.13;9.20;;;23.60;62.40;;;;;;5002669;28;20552;-47
2022/07/22 05:03:43;;;;;;;10.25;9.18;;;23.60;62.40;;;;;;5002326;28;20033;-47
2022/07/22 05:06:09;;;;;;;9.55;8.55;;;23.70;62.40;;;;;;5002575;28;20038;-48
2022/07/22 05:08:35;;;;;;;11.48;10.38;;;23.70;62.60;;;;;;5002337;28;20093;-48
2022/07/22 05:11:01;;;;;;;9.90;9.00;;;23.60;62.20;;;;;;5002293;28;20026;-47
2022/07/22 05:13:27;;;;;;;9.95;8.73;;;23.70;62.40;;;;;;5006796;28;20037;-47
2022/07/22 05:15:53;;;;;;;10.73;8.55;;;23.70;62.70;;;;;;5005489;28;20022;-48
2022/07/22 05:18:18;;;;;;;10.90;9.90;;;23.70;62.40;;;;;;5005378;28;20142;-47
2022/07/22 05:20:44;;;;;;;10.13;9.13;;;23.70;62.40;;;;;;5005791;28;20045;-47
2022/07/22 05:23:10;;;;;;;10.60;9.23;;;23.70;62.60;;;;;;5005697;28;20469;-47
2022/07/22 05:25:35;;;;;;;9.82;8.93;;;23.70;62.60;;;;;;5005340;28;20553;-47
2022/07/22 05:28:01;;;;;;;10.73;9.63;;;23.70;62.80;;;;;;5004603;28;20025;-47
2022/07/22 05:30:27;;;;;;;11.85;9.90;;;23.70;63.10;;;;;;5004942;28;20057;-47
2022/07/22 05:32:53;;;;;;;11.00;9.75;;;23.70;63.20;;;;;;5004973;28;20029;-47
2022/07/22 05:35:19;;;;;;;10.18;9.18;;;23.60;63.00;;;;;;5004396;28;20088;-47
2022/07/22 05:37:45;;;;;;;10.05;9.05;;;23.70;63.40;;;;;;5005457;28;20030;-47
2022/07/22 05:40:11;;;;;;;11.57;9.23;;;23.70;64.30;;;;;;5002391;28;20060;-48
2022/07/22 05:42:37;;;;;;;10.75;9.65;;;23.70;63.70;;;;;;5002882;28;20040;-47
2022/07/22 05:45:03;;;;;;;10.63;9.52;;;23.70;63.70;;;;;;5003132;28;20026;-47
2022/07/22 05:47:29;;;;;;;11.00;10.00;;;23.70;63.70;;;;;;5003519;28;20018;-47
2022/07/22 05:49:55;;;;;;;11.60;9.93;;;23.70;63.80;;;;;;5004558;28;20025;-46
2022/07/22 05:52:20;;;;;;;9.82;8.93;;;23.70;63.90;;;;;;5002775;28;20030;-51
2022/07/22 05:54:46;;;;;;;9.48;8.57;;;23.70;63.80;;;;;;5002920;28;20649;-47
2022/07/22 05:57:11;;;;;;;9.50;8.60;;;23.70;63.40;;;;;;4999957;28;20394;-48
2022/07/22 05:59:37;;;;;;;10.10;9.10;;;23.80;63.20;;;;;;5003294;28;20052;-48
2022/07/22 06:02:03;;;;;;;9.45;8.45;;;23.90;63.00;;;;;;5004522;28;20038;-48
2022/07/22 06:04:29;;;;;;;8.80;8.00;;;24.00;62.70;;;;;;5004902;28;20033;-47
2022/07/22 06:06:55;;;;;;;9.38;8.40;;;24.10;62.00;;;;;;5005583;28;20025;-47
2022/07/22 06:09:20;;;;;;;8.85;7.95;;;24.20;61.50;;;;;;5004759;28;20036;-47
2022/07/22 06:11:47;;;;;;;8.73;7.93;;;24.20;61.10;;;;;;5005292;28;20097;-47
2022/07/22 06:14:12;;;;;;;9.25;8.25;;;24.30;60.80;;;;;;5004475;28;20088;-47
2022/07/22 06:16:38;;;;;;;9.15;8.00;;;24.40;60.60;;;;;;5003961;28;20053;-47
2022/07/22 06:19:03;;;;;;;8.15;7.35;;;24.40;60.70;;;;;;5004115;28;20493;-48
2022/07/22 06:21:29;;;;;;;7.50;6.70;;;24.50;60.50;;;;;;5004612;28;20049;-48
2022/07/22 06:23:55;;;;;;;8.63;7.78;;;24.60;60.20;;;;;;5004163;28;20056;-48
2022/07/22 06:26:21;;;;;;;8.20;7.35;;;24.70;60.10;;;;;;5002986;28;20524;-48
2022/07/22 06:28:46;;;;;;;8.07;7.28;;;24.70;59.70;;;;;;5004306;28;20040;-47
2022/07/22 06:31:12;;;;;;;7.82;7.13;;;24.80;59.60;;;;;;5004124;28;20029;-47
2022/07/22 06:33:38;;;;;;;9.43;8.43;;;24.80;59.40;;;;;;5004604;28;20026;-47
2022/07/22 06:36:04;;;;;;;7.80;7.00;;;24.90;59.40;;;;;;5004061;28;20104;-47
2022/07/22 06:38:30;;;;;;;8.77;7.00;;;24.90;59.30;;;;;;5003331;28;20819;-48
2022/07/22 06:40:56;;;;;;;8.90;8.00;;;24.90;59.10;;;;;;5004283;28;20033;-47
2022/07/22 06:43:22;;;;;;;8.25;7.38;;;25.00;59.00;;;;;;5003767;28;20026;-47
2022/07/22 06:45:48;;;;;;;8.65;7.85;;;25.00;58.80;;;;;;5004069;28;20634;-47
2022/07/22 06:48:14;;;;;;;8.40;7.63;;;25.00;58.70;;;;;;5003974;28;20058;-48
2022/07/22 06:50:40;;;;;;;9.32;8.30;;;25.10;58.60;;;;;;5002724;28;20030;-48
2022/07/22 06:53:06;;;;;;;10.15;8.07;;;25.10;58.60;;;;;;5004476;28;20080;-47
2022/07/22 06:55:32;;;;;;;9.75;8.75;;;25.10;58.40;;;;;;5002298;28;20021;-47
2022/07/22 06:57:58;;;;;;;8.48;7.68;;;25.20;58.20;;;;;;5003362;28;20034;-47
2022/07/22 07:00:23;;;;;;;8.45;7.65;;;25.20;58.10;;;;;;5003405;28;20088;-47
2022/07/22 07:02:49;;;;;;;9.05;8.15;;;25.20;58.00;;;;;;5003321;28;20033;-47
2022/07/22 07:05:15;;;;;;;9.32;8.07;;;25.20;57.90;;;;;;5003673;28;20080;-47
2022/07/22 07:07:41;;;;;;;8.82;8.02;;;25.20;57.70;;;;;;5001004;28;20026;-47
2022/07/22 07:10:09;;;;;;;8.18;7.25;;;25.30;57.60;;;;;;5002983;28;20045;-47
2022/07/22 07:12:35;;;;;;;9.02;7.82;;;25.30;57.40;;;;;;5002635;28;20041;-47
2022/07/22 07:15:01;;;;;;;9.15;8.25;;;25.30;57.20;;;;;;5002542;28;20704;-48
2022/07/22 07:17:26;;;;;;;9.32;8.43;;;25.30;56.00;;;;;;5003209;28;20030;-46
2022/07/22 07:19:52;;;;;;;8.65;7.70;;;25.30;55.50;;;;;;5003055;28;20589;-48
2022/07/22 07:22:18;;;;;;;10.80;8.18;;;25.40;55.70;;;;;;5002828;28;20606;-48
2022/07/22 07:24:43;;;;;;;8.85;7.95;;;25.40;56.00;;;;;;5001167;28;20029;-47
2022/07/22 07:27:09;;;;;;;8.73;7.38;;;25.40;56.00;;;;;;5002399;28;20061;-47
2022/07/22 07:29:35;;;;;;;24.88;10.48;;;25.40;56.10;;;;;;5017431;28;20018;-47
2022/07/22 07:32:01;;;;;;;21.88;11.00;;;25.50;55.90;;;;;;4998506;28;20045;-48
2022/07/22 07:34:27;;;;;;;18.52;10.10;;;25.50;55.60;;;;;;5001684;28;20018;-47
2022/07/22 07:36:53;;;;;;;32.90;11.82;;;25.50;55.50;;;;;;5000676;28;20025;-47
2022/07/22 07:39:18;;;;;;;26.25;10.85;;;25.50;55.10;;;;;;5000129;28;20034;-47
2022/07/22 07:41:44;;;;;;;40.13;13.25;;;25.50;55.20;;;;;;5001827;28;20539;-47
2022/07/22 07:44:10;;;;;;;38.47;13.23;;;25.50;54.60;;;;;;4997056;28;20044;-47
2022/07/22 07:46:35;;;;;;;33.13;11.80;;;25.50;54.50;;;;;;4997769;28;20109;-48
2022/07/22 07:49:01;;;;;;;39.90;12.52;;;25.50;53.90;;;;;;5001648;28;20030;-47
2022/07/22 07:51:27;;;;;;;19.95;10.02;;;25.50;53.60;;;;;;4991493;28;20022;-47
2022/07/22 07:53:53;;;;;;;21.95;10.52;;;25.50;53.80;;;;;;5002351;28;20578;-47
2022/07/22 07:56:18;;;;;;;18.95;8.73;;;25.60;53.40;;;;;;5002116;28;20026;-47
2022/07/22 07:58:44;;;;;;;15.23;8.55;;;25.60;53.10;;;;;;5001520;28;20708;-47
2022/07/22 08:01:10;;;;;;;18.65;8.85;;;25.60;53.10;;;;;;5002295;28;20725;-47
2022/07/22 08:03:36;;;;;;;11.82;7.07;;;25.60;53.30;;;;;;5001683;28;20026;-47
2022/07/22 08:06:01;;;;;;;10.55;7.18;;;25.60;53.30;;;;;;5001801;28;20650;-47
2022/07/22 08:08:27;;;;;;;123.45;30.98;;;25.60;53.30;;;;;;5000073;28;20033;-47
2022/07/22 08:10:53;;;;;;;116.97;31.27;;;25.60;53.50;;;;;;4999501;28;20116;-47
2022/07/22 08:13:19;;;;;;;89.47;30.17;;;25.70;53.60;;;;;;5002773;28;20022;-47
2022/07/22 08:15:44;;;;;;;79.25;25.55;;;25.70;53.40;;;;;;5001084;28;20026;-48
2022/07/22 08:18:10;;;;;;;76.25;21.83;;;25.70;53.50;;;;;;5002279;28;20014;-47
2022/07/22 08:20:36;;;;;;;51.97;17.30;;;25.80;53.60;;;;;;5002745;28;20084;-46
2022/07/22 08:23:02;;;;;;;48.75;17.73;;;25.80;54.10;;;;;;5000582;28;20125;-47
2022/07/22 08:25:28;;;;;;;49.80;17.55;;;25.80;53.80;;;;;;5001105;28;20037;-48
2022/07/22 08:27:54;;;;;;;33.10;15.40;;;25.90;54.10;;;;;;5001361;28;20054;-47
2022/07/22 08:30:22;;;;;;;39.97;15.20;;;25.90;53.90;;;;;;5001072;28;20026;-47
2022/07/22 08:32:48;;;;;;;27.08;13.07;;;25.90;53.60;;;;;;5001238;28;20639;-47
2022/07/22 08:35:14;;;;;;;24.27;12.18;;;26.00;53.90;;;;;;5001354;28;20030;-47
2022/07/22 08:37:40;;;;;;;23.73;12.02;;;26.00;53.50;;;;;;4999821;28;20029;-47
2022/07/22 08:40:07;;;;;;;21.00;10.35;;;26.10;53.40;;;;;;5001254;28;20046;-47
2022/07/22 08:42:40;;;;;;;17.25;10.27;;;26.10;53.10;;;;;;5001504;28;20030;-47
2022/07/22 08:45:07;;;;;;;16.40;8.80;;;26.10;52.90;;;;;;5001709;28;20022;-47
2022/07/22 08:47:33;;;;;;;17.67;9.18;;;26.20;52.60;;;;;;5005839;28;20025;-47
2022/07/22 08:50:00;;;;;;;17.17;9.05;;;26.20;52.70;;;;;;5004752;28;20026;-47
2022/07/22 08:52:25;;;;;;;13.93;8.65;;;26.30;52.60;;;;;;5004666;28;20064;-48
2022/07/22 08:54:51;;;;;;;11.80;7.47;;;26.30;52.50;;;;;;5003453;28;20331;-47
2022/07/22 08:57:18;;;;;;;10.40;7.53;;;26.30;52.40;;;;;;5004678;28;20068;-47
2022/07/22 08:59:58;;;;;;;11.00;6.55;;;26.30;52.30;;;;;;5004944;28;20033;-47
2022/07/22 09:02:25;;;;;;;10.13;7.00;;;26.40;52.30;;;;;;5004288;28;20717;-48
2022/07/22 09:05:00;;;;;;;14.10;6.90;;;26.40;53.00;;;;;;5002527;28;20596;-47
2022/07/22 09:07:28;;;;;;;13.48;6.75;;;26.40;52.90;;;;;;5004219;28;20028;-47
2022/07/22 09:09:54;;;;;;;13.48;7.13;;;26.40;52.40;;;;;;5003626;28;20057;-47
2022/07/22 09:12:22;;;;;;;10.45;7.28;;;26.50;52.50;;;;;;5004022;28;20541;-48
2022/07/22 09:14:50;;;;;;;9.57;6.00;;;26.50;52.40;;;;;;5004888;28;20631;-49
2022/07/22 09:17:37;;;;;;;8.13;5.70;;;26.60;52.30;;;;;;4999778;28;20037;-48
2022/07/22 09:20:21;;;;;;;8.85;6.10;;;26.60;52.30;;;;;;4998725;28;20751;-49
2022/07/22 09:22:48;;;;;;;8.10;5.95;;;26.60;51.50;;;;;;4998708;28;20108;-47
2022/07/22 09:25:20;;;;;;;12.48;6.43;;;26.60;51.30;;;;;;5004543;28;20030;-48
2022/07/22 09:27:46;;;;;;;10.13;5.90;;;26.60;51.40;;;;;;5004901;28;20064;-47
2022/07/22 09:30:18;;;;;;;9.23;5.95;;;26.70;51.30;;;;;;5003599;28;20022;-46
2022/07/22 09:32:45;;;;;;;8.60;5.82;;;26.70;51.40;;;;;;5003742;28;20160;-48
2022/07/22 09:35:11;;;;;;;9.25;6.20;;;26.80;51.30;;;;;;5004144;28;20033;-47
2022/07/22 09:37:46;;;;;;;9.32;6.03;;;26.80;51.20;;;;;;5002933;28;20018;-47
2022/07/22 09:40:35;;;;;;;8.00;6.10;;;26.80;51.20;;;;;;5004813;28;20517;-49
2022/07/22 09:43:04;;;;;;;8.85;5.60;;;26.80;51.10;;;;;;5004462;28;20091;-49
2022/07/22 09:45:31;;;;;;;10.23;6.43;;;26.90;51.40;;;;;;5003008;28;20029;-47
2022/07/22 09:47:59;;;;;;;8.90;6.78;;;26.90;51.40;;;;;;5004674;28;20026;-47
2022/07/22 09:50:26;;;;;;;10.98;6.88;;;27.00;52.00;;;;;;5003560;28;20557;-47
2022/07/22 09:52:53;;;;;;;15.35;7.72;;;27.00;52.10;;;;;;5003081;28;20745;-47
2022/07/22 09:55:22;;;;;;;20.70;7.88;;;27.00;51.70;;;;;;5001546;28;20014;-47
2022/07/22 09:57:49;;;;;;;28.50;10.02;;;27.10;51.50;;;;;;5002064;28;20022;-47
2022/07/22 10:00:18;;;;;;;26.40;10.40;;;27.10;51.20;;;;;;5004281;28;20088;-49
2022/07/22 10:02:54;;;;;;;54.78;15.50;;;27.10;51.10;;;;;;5003460;28;20674;-51
2022/07/22 10:05:26;;;;;;;39.55;12.70;;;27.20;51.00;;;;;;5003923;28;20071;-48
2022/07/22 10:07:52;;;;;;;40.33;12.52;;;27.20;50.80;;;;;;5002223;28;20573;-48
2022/07/22 10:10:24;;;;;;;26.80;10.20;;;27.20;50.80;;;;;;5002604;28;20044;-49
2022/07/22 10:12:52;;;;;;;21.75;9.07;;;27.20;50.80;;;;;;5003289;28;20080;-49
2022/07/22 10:15:19;;;;;;;24.38;9.48;;;27.30;50.60;;;;;;5003866;28;20022;-49
2022/07/22 10:17:50;;;;;;;19.85;7.78;;;27.30;50.20;;;;;;5003414;28;20026;-49
2022/07/22 10:20:18;;;;;;;15.88;6.75;;;27.30;50.20;;;;;;5002350;28;20030;-48
2022/07/22 10:22:54;;;;;;;11.13;6.07;;;27.30;49.90;;;;;;5018139;28;20490;-49
2022/07/22 10:25:23;;;;;;;10.73;6.18;;;27.30;50.00;;;;;;5003238;28;20014;-50
2022/07/22 10:27:56;;;;;;;10.73;6.13;;;27.30;49.70;;;;;;5003799;28;20709;-48
2022/07/22 10:30:31;;;;;;;8.88;6.45;;;27.30;49.40;;;;;;5002276;28;20114;-49
2022/07/22 10:33:12;;;;;;;9.55;5.32;;;27.30;49.10;;;;;;5002314;28;20025;-48
2022/07/22 10:35:43;;;;;;;7.43;5.40;;;27.30;49.20;;;;;;5002938;28;20064;-50
2022/07/22 10:38:13;;;;;;;7.07;5.78;;;27.30;49.30;;;;;;5000984;28;20026;-48
2022/07/22 10:40:58;;;;;;;7.60;5.18;;;27.30;49.00;;;;;;5001417;28;20112;-49
2022/07/22 10:43:28;;;;;;;6.80;5.13;;;27.30;48.90;;;;;;5003141;28;20728;-49
2022/07/22 10:45:59;;;;;;;6.93;5.07;;;27.30;48.60;;;;;;5000713;28;20096;-48
2022/07/22 10:48:45;;;;;;;8.02;5.63;;;27.30;49.40;;;;;;5001100;28;20041;-48
2022/07/22 10:51:17;;;;;;;22.42;8.13;;;27.30;51.10;;;;;;5017328;28;20386;-49
2022/07/22 10:53:45;;;;;;;32.17;11.13;;;27.30;52.10;;;;;;5001645;28;20092;-49
2022/07/22 10:56:16;;;;;;;49.95;14.15;;;27.40;52.70;;;;;;5003427;28;20026;-48
2022/07/22 10:58:44;;;;;;;79.80;19.00;;;27.40;52.00;;;;;;5003854;28;20022;-47
2022/07/22 11:01:12;;;;;;;67.80;19.02;;;27.40;51.70;;;;;;5003497;28;20018;-48
2022/07/22 11:03:41;;;;;;;99.85;24.60;;;27.50;51.50;;;;;;5003807;28;20032;-47
2022/07/22 11:06:21;;;;;;;109.72;26.00;;;27.50;51.30;;;;;;5004564;28;20112;-47
2022/07/22 11:08:57;;;;;;;154.88;34.47;;;27.60;51.10;;;;;;5001972;28;20648;-47
2022/07/22 11:11:38;;;;;;;204.30;50.45;;;27.60;51.00;;;;;;5002838;28;20053;-48
2022/07/22 11:14:10;;;;;;;189.57;48.42;;;27.60;51.80;;;;;;5002288;28;20694;-48
2022/07/22 11:16:36;;;;;;;183.20;47.47;;;27.60;51.00;;;;;;5003115;28;20046;-49
2022/07/22 11:19:02;;;;;;;190.13;47.17;;;27.70;51.00;;;;;;5002641;28;20041;-48
2022/07/22 11:21:30;;;;;;;125.47;34.72;;;27.70;51.10;;;;;;5001460;28;20036;-48
2022/07/22 11:23:59;;;;;;;96.53;29.45;;;27.80;51.20;;;;;;5000724;28;20025;-47
2022/07/22 11:26:41;;;;;;;115.10;32.97;;;27.80;51.00;;;;;;4999693;28;20108;-48
2022/07/22 11:29:08;;;;;;;89.40;27.00;;;27.90;51.30;;;;;;5001663;28;20111;-47
2022/07/22 11:31:35;;;;;;;83.82;26.05;;;27.80;52.30;;;;;;5002947;28;20022;-47
2022/07/22 11:34:11;;;;;;;69.47;22.67;;;27.90;52.10;;;;;;5002579;28;20556;-47
2022/07/22 11:36:39;;;;;;;45.13;18.20;;;27.90;51.50;;;;;;5002809;28;20029;-46
2022/07/22 11:39:07;;;;;;;52.22;17.00;;;27.90;50.00;;;;;;5002817;28;20853;-48
2022/07/22 11:41:33;;;;;;;52.92;17.80;;;27.90;49.90;;;;;;5001833;28;20033;-49
2022/07/22 11:43:59;;;;;;;29.45;12.30;;;27.90;50.00;;;;;;5003107;28;20409;-48
2022/07/22 11:46:26;;;;;;;31.98;11.07;;;27.90;49.40;;;;;;5002259;28;20444;-47
2022/07/22 11:48:58;;;;;;;26.13;11.35;;;27.90;48.60;;;;;;5000326;28;20030;-49
2022/07/22 11:51:30;;;;;;;28.85;12.75;;;27.90;48.70;;;;;;5001776;28;20029;-47
2022/07/22 11:53:56;;;;;;;28.77;15.52;;;27.90;48.60;;;;;;5001095;28;20026;-51
2022/07/22 11:56:22;;;;;;;38.33;19.67;;;27.90;48.90;;;;;;5015559;28;20026;-49
2022/07/22 11:58:49;;;;;;;51.88;26.88;;;27.90;49.60;;;;;;5000016;28;20057;-47
2022/07/22 12:01:17;;;;;;;50.28;30.92;;;28.00;50.30;;;;;;5001734;28;20034;-46
2022/07/22 12:03:52;;;;;;;41.47;26.50;;;28.00;50.50;;;;;;5001879;28;20053;-47
2022/07/22 12:06:19;;;;;;;41.08;24.02;;;28.00;49.30;;;;;;5001976;28;20026;-49
2022/07/22 12:08:51;;;;;;;32.67;22.13;;;28.00;49.00;;;;;;5015169;28;20021;-49
2022/07/22 12:11:20;;;;;;;33.38;21.17;;;28.00;49.70;;;;;;5015994;28;20014;-48
2022/07/22 12:13:48;;;;;;;28.98;17.98;;;28.00;49.00;;;;;;5001511;28;20026;-48
2022/07/22 12:16:29;;;;;;;33.05;20.25;;;28.00;49.40;;;;;;5001761;28;20026;-49
2022/07/22 12:19:00;;;;;;;25.77;19.13;;;28.00;49.00;;;;;;5001493;28;20508;-49
2022/07/22 12:21:31;;;;;;;23.00;16.90;;;28.00;49.30;;;;;;5002167;28;20033;-49
2022/07/22 12:24:09;;;;;;;23.08;16.45;;;28.10;49.20;;;;;;5001881;28;20057;-48
2022/07/22 12:26:43;;;;;;;21.60;14.82;;;28.10;49.00;;;;;;5001638;28;20033;-49
2022/07/22 12:29:20;;;;;;;18.75;13.77;;;28.00;48.40;;;;;;5001618;28;20033;-49
2022/07/22 12:31:49;;;;;;;16.25;12.30;;;28.10;48.40;;;;;;4998032;28;20018;-48
2022/07/22 12:34:15;;;;;;;13.25;10.23;;;28.10;48.40;;;;;;5000812;28;20037;-48
2022/07/22 12:36:46;;;;;;;15.00;11.02;;;28.00;48.30;;;;;;5000250;28;20025;-46
2022/07/22 12:39:18;;;;;;;12.45;9.57;;;28.10;48.40;;;;;;4998995;28;20030;-45
2022/07/22 12:41:53;;;;;;;13.95;9.75;;;28.10;47.90;;;;;;5000332;28;20032;-46